Time;durP1;ratioP1;P1;durP2;ratioP2;P2;SDS_P1;SDS_P2;PMS_P1;PMS_P2;Temp;Humidity;BMP_temperature;BMP_pressure;BME280_temperature;BME280_humidity;BME280_pressure;Samples;Min_cycle;Max_cycle;Signal;HPM_P1;HPM_P2
2023/02/16 00:01:43;;;;;;;9.02;4.30;;;;;;;5.58;100.00;101083.56;4992679;28;20053;-96
2023/02/16 00:04:19;;;;;;;7.47;4.18;;;;;;;5.72;100.00;101120.78;4992592;28;20045;-95
2023/02/16 00:06:45;;;;;;;6.68;3.78;;;;;;;5.74;100.00;101111.34;4992688;28;20503;-96
2023/02/16 00:09:11;;;;;;;6.38;3.92;;;;;;;5.72;100.00;101120.78;4992562;28;20102;-96
2023/02/16 00:14:25;;;;;;;8.55;3.72;;;;;;;5.52;100.00;101077.75;4994123;28;20073;-95
2023/02/16 00:16:55;;;;;;;7.30;3.70;;;;;;;5.63;100.00;101103.06;4993406;28;20061;-96
2023/02/16 00:19:33;;;;;;;9.02;4.18;;;;;;;5.49;100.00;101088.94;4998421;28;20022;-96
2023/02/16 00:22:00;;;;;;;10.50;4.05;;;;;;;5.60;100.00;101090.38;4995678;28;20030;-96
2023/02/16 00:24:28;;;;;;;6.60;3.10;;;;;;;5.72;100.00;101105.41;4996744;28;20030;-96
2023/02/16 00:26:54;;;;;;;8.02;3.47;;;;;;;5.63;100.00;101090.28;4997649;28;20042;-95
2023/02/16 00:29:31;;;;;;;4.60;3.80;;;;;;;5.63;100.00;101086.00;4996673;28;20026;-95
2023/02/16 00:31:59;;;;;;;5.15;3.00;;;;;;;5.47;100.00;101059.97;4999072;28;20030;-96
2023/02/16 00:34:33;;;;;;;3.58;2.80;;;;;;;5.47;100.00;101049.72;4996447;28;20042;-95
2023/02/16 00:37:06;;;;;;;5.63;3.20;;;;;;;5.41;100.00;101042.19;4996716;28;20022;-95
2023/02/16 00:39:32;;;;;;;6.07;2.50;;;;;;;5.53;100.00;101058.94;4997018;28;20019;-95
2023/02/16 00:42:02;;;;;;;4.50;2.28;;;;;;;5.42;100.00;101031.09;4996683;28;20488;-96
2023/02/16 00:44:35;;;;;;;3.83;2.50;;;;;;;5.53;100.00;101049.53;4996750;28;20030;-96
2023/02/16 00:47:21;;;;;;;4.00;2.20;;;;;;;5.61;100.00;101063.88;4997558;28;20477;-96
2023/02/16 00:49:49;;;;;;;3.72;2.22;;;;;;;5.53;100.00;101044.41;4998387;28;20033;-95
2023/02/16 00:52:41;;;;;;;4.78;2.03;;;;;;;5.47;100.00;101028.41;4997044;28;20058;-96
2023/02/16 00:55:14;;;;;;;4.93;1.98;;;;;;;5.48;100.00;101023.22;4977201;28;20037;-96
2023/02/16 00:57:43;;;;;;;6.32;2.53;;;;;;;5.51;100.00;101030.84;4986566;28;20114;-95
2023/02/16 01:00:15;;;;;;;3.60;2.13;;;;;;;5.49;100.00;101027.47;4979062;28;20089;-96
2023/02/16 01:02:42;;;;;;;;;;;;;;;5.41;100.00;101029.38;4980276;28;20023;-94
2023/02/16 01:05:08;;;;;;;2.70;2.40;;;;;;;5.20;100.00;100999.25;4997615;28;19914;-95
2023/02/16 01:13:03;;;;;;;4.18;2.20;;;;;;;5.09;100.00;100982.44;4977062;28;20089;-96
2023/02/16 01:15:28;;;;;;;5.80;2.20;;;;;;;5.24;100.00;100999.16;4980814;28;20429;-96
2023/02/16 01:17:54;;;;;;;4.80;2.22;;;;;;;5.36;100.00;101015.88;4989989;28;20025;-96
2023/02/16 01:20:24;;;;;;;4.65;1.73;;;;;;;5.31;100.00;101002.34;4994159;28;20040;-96
2023/02/16 01:22:50;;;;;;;4.32;2.20;;;;;;;5.23;100.00;100997.44;4994893;28;20030;-95
2023/02/16 01:25:16;;;;;;;2.55;1.40;;;;;;;5.25;100.00;100988.00;4995007;28;20026;-96
2023/02/16 01:27:43;;;;;;;4.10;1.52;;;;;;;5.24;100.00;100991.47;4995413;28;20107;-96
2023/02/16 01:30:16;;;;;;;2.47;1.25;;;;;;;5.39;100.00;100994.47;4995286;28;20049;-96
2023/02/16 01:32:41;;;;;;;1.42;1.00;;;;;;;5.37;100.00;100979.19;4991884;28;20041;-95
2023/02/16 01:35:09;;;;;;;3.92;1.23;;;;;;;5.51;100.00;100989.88;4975216;28;20416;-96
2023/02/16 01:37:34;;;;;;;4.70;1.10;;;;;;;5.47;100.00;100956.72;4986921;28;20031;-96
2023/02/16 01:40:00;;;;;;;4.10;1.23;;;;;;;5.66;100.00;100972.41;4996669;28;20028;-95
2023/02/16 01:42:50;;;;;;;5.57;1.10;;;;;;;5.64;100.00;100963.94;4991149;28;20034;-96
2023/02/16 01:45:32;;;;;;;4.85;1.30;;;;;;;5.88;100.00;100983.72;4983765;28;20026;-95
2023/02/16 01:48:03;;;;;;;4.13;1.20;;;;;;;5.70;100.00;100966.28;4990886;28;20469;-96
2023/02/16 01:50:41;;;;;;;2.63;1.23;;;;;;;5.88;100.00;100958.09;4978031;28;20030;-96
2023/02/16 01:53:30;;;;;;;2.53;1.35;;;;;;;5.90;100.00;100965.72;4994084;28;20539;-96
2023/02/16 01:56:02;;;;;;;3.17;1.10;;;;;;;5.96;100.00;100973.25;4974685;28;20030;-96
2023/02/16 01:58:44;;;;;;;3.10;1.20;;;;;;;5.96;100.00;100976.66;4974395;28;20019;-96
2023/02/16 02:01:31;;;;;;;4.55;1.85;;;;;;;5.98;100.00;100974.06;4974888;28;20034;-95
2023/02/16 02:06:42;;;;;;;9.43;1.90;;;;;;;5.88;100.00;100926.53;4975756;28;20038;-95
2023/02/16 02:09:24;;;;;;;10.43;2.15;;;;;;;6.07;100.00;100931.94;4973756;28;20027;-96
2023/02/16 02:11:57;;;;;;;6.00;2.00;;;;;;;6.21;100.00;100953.69;4974068;28;20031;-96
2023/02/16 02:14:34;;;;;;;6.68;2.05;;;;;;;5.99;100.00;100909.94;4973946;28;20445;-95
2023/02/16 02:17:07;;;;;;;5.45;2.67;;;;;;;6.38;100.00;100927.50;4974986;28;20098;-95
2023/02/16 02:20:00;;;;;;;16.17;3.15;;;;;;;6.39;100.00;100942.03;4974223;28;20027;-95
2023/02/16 02:25:54;;;;;;;10.18;4.05;;;;;;;6.30;100.00;100903.03;4976377;28;20085;-94
2023/02/16 02:28:26;;;;;;;8.38;3.53;;;;;;;6.46;100.00;100916.19;4979549;28;20023;-94
2023/02/16 02:31:07;;;;;;;;;;;;;;;6.56;100.00;100918.41;4974209;28;20054;-96
2023/02/16 02:33:53;;;;;;;10.30;4.28;;;;;;;6.61;100.00;100915.69;4974724;28;20045;-95
2023/02/16 02:36:36;;;;;;;12.23;3.90;;;;;;;6.59;100.00;100900.34;4975162;28;20023;-96
2023/02/16 02:39:15;;;;;;;9.02;3.42;;;;;;;6.54;100.00;100886.00;4990318;28;20045;-96
2023/02/16 02:42:03;;;;;;;8.73;3.88;;;;;;;6.78;100.00;100908.25;4993720;28;20479;-95
2023/02/16 02:44:38;;;;;;;8.43;4.60;;;;;;;6.75;100.00;100895.50;4992147;28;20034;-96
2023/02/16 02:47:04;;;;;;;9.30;4.18;;;;;;;6.88;100.00;100913.06;4973875;28;20062;-94
2023/02/16 02:49:29;;;;;;;14.98;5.05;;;;;;;6.79;100.00;100897.09;4973700;28;20058;-96
2023/02/16 02:51:56;;;;;;;8.43;4.07;;;;;;;6.90;100.00;100903.56;4984180;28;20034;-95
2023/02/16 03:00:42;;;;;;;7.93;4.00;;;;;;;6.81;100.00;100879.94;4974486;28;20523;-94
2023/02/16 03:03:20;;;;;;;12.63;4.90;;;;;;;6.91;100.00;100884.75;4974459;28;20035;-96
2023/02/16 03:05:55;;;;;;;11.60;4.43;;;;;;;6.82;100.00;100866.19;4972956;28;20031;-96
2023/02/16 03:08:24;;;;;;;6.75;5.25;;;;;;;6.72;100.00;100840.94;4973925;28;20019;-96
2023/02/16 03:14:13;;;;;;;12.50;3.70;;;;;;;6.96;100.00;100855.44;4987534;28;20491;-95
2023/02/16 03:16:46;;;;;;;7.53;3.92;;;;;;;6.75;100.00;100828.81;4992262;28;20061;-96
2023/02/16 03:30:25;;;;;;;10.55;3.72;;;;;;;7.00;100.00;100827.97;4993658;28;20044;-96
2023/02/16 03:32:51;;;;;;;10.55;4.65;;;;;;;7.06;100.00;100838.00;4994235;28;20034;-96
2023/02/16 03:35:18;;;;;;;9.60;4.05;;;;;;;6.83;100.00;100805.47;4992962;28;20392;-96
2023/02/16 03:37:45;;;;;;;9.45;4.28;;;;;;;6.93;100.00;100811.94;4993390;28;20078;-96
2023/02/16 03:40:28;;;;;;;8.77;3.63;;;;;;;7.00;100.00;100820.28;4993246;28;20093;-96
2023/02/16 03:43:02;;;;;;;9.48;5.00;;;;;;;6.78;100.00;100787.69;4992031;28;20034;-96
2023/02/16 03:45:29;;;;;;;17.10;3.92;;;;;;;7.01;100.00;100811.66;4992699;28;20026;-96
2023/02/16 03:47:55;;;;;;;10.00;4.00;;;;;;;6.88;100.00;100784.75;4992244;28;20033;-96
2023/02/16 03:50:20;;;;;;;8.45;3.20;;;;;;;7.17;100.00;100824.75;4992749;28;20493;-96
2023/02/16 03:52:46;;;;;;;12.52;3.53;;;;;;;7.11;100.00;100810.41;4989539;28;20056;-95
2023/02/16 03:55:12;;;;;;;8.55;3.50;;;;;;;7.20;100.00;100809.25;4972813;28;20041;-96
2023/02/16 03:57:38;;;;;;;11.90;3.35;;;;;;;7.03;100.00;100771.38;4990586;28;20049;-96
2023/02/16 04:00:04;;;;;;;9.65;4.40;;;;;;;7.22;100.00;100799.78;4992792;28;20035;-96
2023/02/16 04:02:30;;;;;;;8.93;3.20;;;;;;;7.05;100.00;100775.56;4992772;28;20058;-96
2023/02/16 04:04:55;;;;;;;8.85;2.55;;;;;;;7.13;100.00;100762.44;4978684;28;20557;-96
2023/02/16 04:07:21;;;;;;;9.57;3.05;;;;;;;7.04;100.00;100755.91;4992922;28;20030;-96
2023/02/16 04:09:47;;;;;;;7.55;3.55;;;;;;;7.13;100.00;100762.44;4985940;28;20030;-95
2023/02/16 04:14:57;;;;;;;8.57;3.47;;;;;;;7.33;100.00;100794.22;4979334;28;20516;-96
2023/02/16 04:17:23;;;;;;;8.30;2.97;;;;;;;7.21;100.00;100773.25;4992240;28;20026;-96
2023/02/16 04:19:48;;;;;;;9.52;4.00;;;;;;;7.17;100.00;100776.84;4976701;28;20034;-96
2023/02/16 04:22:14;;;;;;;10.73;3.75;;;;;;;7.13;100.00;100757.31;4975771;28;20022;-95
2023/02/16 04:24:40;;;;;;;19.20;4.32;;;;;;;7.29;100.00;100791.78;4976953;28;20034;-96
2023/02/16 04:27:05;;;;;;;13.50;3.30;;;;;;;7.33;100.00;100779.66;4979017;28;20038;-96
2023/02/16 04:29:31;;;;;;;8.50;3.60;;;;;;;7.29;100.00;100766.09;4976957;28;20523;-96
2023/02/16 04:31:57;;;;;;;13.88;3.85;;;;;;;7.23;100.00;100765.50;4976913;28;20555;-96
2023/02/16 04:34:22;;;;;;;8.52;3.47;;;;;;;7.41;100.00;100787.03;4988878;28;20038;-96
2023/02/16 04:36:48;;;;;;;9.68;3.60;;;;;;;7.23;100.00;100747.53;4992976;28;20034;-96
2023/02/16 04:39:13;;;;;;;11.30;4.18;;;;;;;7.42;100.00;100757.91;4976312;28;20051;-96
2023/02/16 04:41:39;;;;;;;11.05;4.38;;;;;;;7.41;100.00;100754.53;4975990;28;20030;-95
2023/02/16 04:44:05;;;;;;;8.82;4.40;;;;;;;7.42;100.00;100758.75;4979526;28;20026;-96
2023/02/16 04:46:31;;;;;;;12.10;4.82;;;;;;;7.31;100.00;100749.78;4975673;28;20019;-96
2023/02/16 04:48:56;;;;;;;15.45;5.30;;;;;;;7.43;100.00;100764.72;4975943;28;20062;-96
2023/02/16 04:51:22;;;;;;;19.23;4.72;;;;;;;7.27;100.00;100739.66;4976038;28;20034;-96
2023/02/16 04:53:48;;;;;;;13.93;5.07;;;;;;;7.30;100.00;100736.13;4975955;28;20031;-96
2023/02/16 04:56:13;;;;;;;14.32;4.85;;;;;;;7.46;100.00;100756.88;4976162;28;20027;-96
2023/02/16 04:58:39;;;;;;;13.02;5.55;;;;;;;7.48;100.00;100767.94;4975772;28;20125;-96
2023/02/16 05:01:05;;;;;;;12.40;5.28;;;;;;;7.29;100.00;100717.31;4991931;28;20071;-96
2023/02/16 05:03:30;;;;;;;11.52;6.00;;;;;;;7.38;100.00;100756.34;4976133;28;20058;-96
2023/02/16 05:05:56;;;;;;;10.93;4.10;;;;;;;7.50;100.00;100768.72;4975222;28;20038;-96
2023/02/16 05:08:21;;;;;;;13.35;4.20;;;;;;;7.35;100.00;100757.31;4974967;28;20483;-96
2023/02/16 05:14:40;;;;;;;10.57;4.22;;;;;;;7.52;100.00;100769.50;4990360;28;20030;-96
2023/02/16 05:16:21;;;;;;;13.38;5.13;;;;;;;7.34;100.00;100749.66;4995916;28;20546;-96
2023/02/16 05:18:46;;;;;;;14.27;4.43;;;;;;;7.38;100.00;100761.50;4993938;28;20033;-96
2023/02/16 05:21:30;;;;;;;12.40;4.13;;;;;;;7.46;100.00;100775.72;4994261;28;20034;-96
2023/02/16 05:23:59;;;;;;;11.43;4.63;;;;;;;7.35;100.00;100747.03;4992382;28;20481;-96
2023/02/16 05:26:26;;;;;;;11.00;3.85;;;;;;;7.50;100.00;100745.59;4993208;28;20034;-96
2023/02/16 05:28:51;;;;;;;11.25;3.03;;;;;;;7.45;100.00;100734.69;4990816;28;20820;-96
2023/02/16 05:31:17;;;;;;;6.03;2.78;;;;;;;7.56;100.00;100749.66;4974464;28;20030;-96
2023/02/16 05:33:42;;;;;;;5.45;2.67;;;;;;;7.53;100.00;100760.06;4974540;28;20393;-96
2023/02/16 05:36:08;;;;;;;9.48;2.10;;;;;;;7.51;100.00;100737.03;4985208;28;20033;-96
2023/02/16 05:38:34;;;;;;;5.18;1.98;;;;;;;7.52;100.00;100737.84;4978446;28;20078;-95
2023/02/16 05:40:59;;;;;;;7.65;1.95;;;;;;;7.43;100.00;100723.63;4994814;28;20026;-96
2023/02/16 05:43:25;;;;;;;4.22;2.65;;;;;;;7.68;100.00;100762.88;4995200;28;20033;-95
2023/02/16 05:45:51;;;;;;;8.20;2.13;;;;;;;7.41;100.00;100725.41;4991302;28;20064;-95
2023/02/16 05:48:16;;;;;;;4.03;1.55;;;;;;;7.50;100.00;100735.31;4975603;28;20054;-96
2023/02/16 05:50:42;;;;;;;6.15;1.85;;;;;;;7.42;100.00;100719.41;4975783;28;20026;-96
2023/02/16 05:53:07;;;;;;;6.88;1.27;;;;;;;7.40;100.00;100723.75;4985789;28;20493;-96
2023/02/16 05:55:33;;;;;;;7.18;1.45;;;;;;;7.43;100.00;100713.34;4975941;28;20081;-96
2023/02/16 05:57:58;;;;;;;3.92;0.80;;;;;;;7.47;100.00;100727.75;4974649;28;20062;-95
2023/02/16 06:00:24;;;;;;;4.70;1.10;;;;;;;7.38;100.00;100716.09;4975576;28;20033;-95
2023/02/16 06:02:50;;;;;;;3.97;1.00;;;;;;;7.36;100.00;100712.75;4975144;28;20073;-95
2023/02/16 06:05:15;;;;;;;2.78;0.60;;;;;;;7.34;100.00;100700.88;4975440;28;20023;-94
2023/02/16 06:07:41;;;;;;;4.75;0.90;;;;;;;7.33;100.00;100696.66;4976619;28;20035;-96
2023/02/16 06:10:07;;;;;;;2.40;0.63;;;;;;;7.52;100.00;100725.84;4975160;28;20390;-96
2023/02/16 06:12:33;;;;;;;2.72;0.75;;;;;;;7.36;100.00;100699.91;4974953;28;20030;-96
2023/02/16 06:15:00;;;;;;;2.50;0.75;;;;;;;7.54;100.00;100736.88;4990465;28;20030;-96
2023/02/16 06:17:27;;;;;;;1.20;0.70;;;;;;;7.35;100.00;100707.69;4991296;28;20369;-96
2023/02/16 06:19:53;;;;;;;1.95;0.70;;;;;;;7.39;100.00;100706.66;4975148;28;20388;-96
2023/02/16 06:22:18;;;;;;;1.92;0.70;;;;;;;7.61;100.00;100735.75;4975543;28;20553;-96
2023/02/16 06:24:44;;;;;;;2.42;0.70;;;;;;;7.44;100.00;100707.34;4975322;28;20058;-96
2023/02/16 06:27:10;;;;;;;4.80;1.13;;;;;;;7.55;100.00;100712.03;4988057;28;20028;-95
2023/02/16 06:29:35;;;;;;;1.00;0.80;;;;;;;7.55;100.00;100714.59;4991459;28;20054;-96
2023/02/16 06:32:01;;;;;;;7.13;1.00;;;;;;;7.40;100.00;100695.50;4988393;28;20034;-96
2023/02/16 06:34:26;;;;;;;1.50;0.90;;;;;;;7.61;100.00;100716.94;4990258;28;20031;-96
2023/02/16 06:36:52;;;;;;;3.30;1.52;;;;;;;7.42;100.00;100696.28;4974327;28;20077;-96
2023/02/16 06:39:19;;;;;;;3.08;1.30;;;;;;;7.44;100.00;100681.66;4986089;28;20081;-96
2023/02/16 06:41:45;;;;;;;2.17;1.40;;;;;;;7.41;100.00;100684.31;4987765;28;20026;-96
2023/02/16 06:44:14;;;;;;;3.70;1.38;;;;;;;7.58;100.00;100712.72;4992172;28;20113;-96
2023/02/16 06:46:44;;;;;;;1.55;1.05;;;;;;;7.63;100.00;100710.84;4974363;28;20118;-96
2023/02/16 06:49:12;;;;;;;3.70;1.80;;;;;;;7.58;100.00;100702.44;4979434;28;20097;-96
2023/02/16 06:51:37;;;;;;;5.45;2.10;;;;;;;7.66;100.00;100705.56;4983996;28;20117;-95
2023/02/16 06:54:03;;;;;;;2.80;1.50;;;;;;;7.48;100.00;100690.88;4997189;28;20073;-96
2023/02/16 06:56:31;;;;;;;3.53;1.50;;;;;;;7.56;100.00;100698.28;4997661;28;20021;-96
2023/02/16 06:58:57;;;;;;;2.70;1.73;;;;;;;7.61;100.00;100686.94;5010709;28;20061;-96
2023/02/16 07:01:25;;;;;;;1.60;1.50;;;;;;;7.80;100.00;100732.41;5010395;28;20029;-96
2023/02/16 07:03:53;;;;;;;2.50;1.45;;;;;;;7.62;100.00;100714.28;5004081;28;20030;-95
2023/02/16 07:06:21;;;;;;;2.42;1.65;;;;;;;7.80;100.00;100742.69;4998972;28;20434;-96
2023/02/16 07:08:47;;;;;;;2.72;1.73;;;;;;;7.65;100.00;100719.28;5000173;28;20469;-96
2023/02/16 07:11:13;;;;;;;3.08;1.90;;;;;;;7.67;100.00;100722.63;4988259;28;20041;-96
2023/02/16 07:13:39;;;;;;;1.80;1.52;;;;;;;7.72;100.00;100730.16;5010199;28;20022;-95
2023/02/16 07:16:05;;;;;;;2.10;1.80;;;;;;;7.82;100.00;100735.75;4995364;28;20026;-95
2023/02/16 07:18:32;;;;;;;2.97;1.67;;;;;;;7.83;100.00;100737.44;4989552;28;20092;-95
2023/02/16 07:20:58;;;;;;;3.17;1.90;;;;;;;7.92;100.00;100737.03;4983293;28;20025;-96
2023/02/16 07:23:24;;;;;;;2.30;1.83;;;;;;;7.84;100.00;100728.81;4990171;28;20030;-96
2023/02/16 07:25:49;;;;;;;2.67;2.10;;;;;;;7.75;100.00;100721.50;4988784;28;20424;-96
2023/02/16 07:28:15;;;;;;;2.92;2.25;;;;;;;7.79;100.00;100730.75;5001202;28;20034;-95
2023/02/16 07:30:40;;;;;;;2.90;2.15;;;;;;;7.87;100.00;100739.81;4988829;28;20045;-95
2023/02/16 07:33:06;;;;;;;4.68;2.05;;;;;;;7.84;100.00;100723.69;5003200;28;20038;-95
2023/02/16 07:35:33;;;;;;;5.22;2.30;;;;;;;8.05;100.00;100752.81;5008536;28;20029;-96
2023/02/16 07:37:59;;;;;;;3.95;2.55;;;;;;;8.00;100.00;100735.00;5013603;28;20022;-96
2023/02/16 07:40:25;;;;;;;3.65;2.47;;;;;;;8.05;100.00;100738.22;4995493;28;20023;-95
2023/02/16 07:42:50;;;;;;;4.13;2.40;;;;;;;8.09;100.00;100744.03;4997684;28;20091;-96
2023/02/16 07:45:16;;;;;;;5.05;3.33;;;;;;;8.04;100.00;100739.09;4994800;28;20060;-96
2023/02/16 07:47:42;;;;;;;5.90;3.85;;;;;;;8.10;100.00;100762.00;4994131;28;20023;-96
2023/02/16 07:50:08;;;;;;;5.22;3.60;;;;;;;8.26;100.00;100761.34;4993515;28;20023;-95
2023/02/16 07:52:34;;;;;;;5.50;3.63;;;;;;;8.14;100.00;100730.13;4997125;28;20366;-96
2023/02/16 07:55:00;;;;;;;8.27;4.05;;;;;;;8.10;100.00;100728.56;4995131;28;20102;-96
2023/02/16 07:57:26;;;;;;;6.88;4.50;;;;;;;8.19;100.00;100776.19;4993794;28;20018;-96
2023/02/16 07:59:53;;;;;;;5.75;3.67;;;;;;;8.21;100.00;100763.28;4996185;28;20053;-96
2023/02/16 08:02:23;;;;;;;11.38;5.32;;;;;;;8.18;100.00;100747.97;4998594;28;20472;-96
2023/02/16 08:04:51;;;;;;;6.72;4.47;;;;;;;8.13;100.00;100733.56;4989487;28;20057;-96
2023/02/16 08:07:17;;;;;;;10.38;5.07;;;;;;;8.22;100.00;100744.34;4998687;28;20037;-96
2023/02/16 08:09:43;;;;;;;8.80;5.43;;;;;;;8.21;100.00;100742.69;4997776;28;20023;-96
2023/02/16 08:12:14;;;;;;;7.20;5.05;;;;;;;8.26;100.00;100751.03;4997034;28;20034;-96
2023/02/16 08:14:40;;;;;;;11.68;5.40;;;;;;;8.26;100.00;100736.44;4993195;28;20034;-96
2023/02/16 08:17:06;;;;;;;10.07;5.50;;;;;;;8.44;100.00;100759.75;4977085;28;20034;-96
2023/02/16 08:19:33;;;;;;;6.70;5.20;;;;;;;8.35;100.00;100740.38;4977279;28;20023;-96
2023/02/16 08:22:01;;;;;;;6.25;4.68;;;;;;;8.44;100.00;100750.31;4976633;28;20370;-95
2023/02/16 08:24:27;;;;;;;6.55;5.18;;;;;;;8.41;100.00;100734.97;4985359;28;20030;-95
2023/02/16 08:26:54;;;;;;;8.93;5.20;;;;;;;8.66;100.00;100780.25;4995637;28;20022;-96
2023/02/16 08:29:24;;;;;;;6.47;4.70;;;;;;;8.59;100.00;100759.09;4995912;28;20541;-96
2023/02/16 08:31:50;;;;;;;9.32;5.07;;;;;;;8.75;100.00;100780.66;4995616;28;20026;-95
2023/02/16 08:34:17;;;;;;;9.23;5.00;;;;;;;8.65;100.00;100760.53;4991240;28;20062;-94
2023/02/16 08:36:45;;;;;;;8.18;5.00;;;;;;;8.74;100.00;100770.44;4994796;28;20034;-95
2023/02/16 08:39:19;;;;;;;6.93;4.53;;;;;;;8.81;100.00;100764.09;4997261;28;20425;-94
2023/02/16 08:41:47;;;;;;;9.32;4.40;;;;;;;8.94;100.00;100780.66;4995064;28;20041;-95
2023/02/16 08:44:14;;;;;;;6.82;4.10;;;;;;;8.89;100.00;100751.72;4991902;28;20519;-95
2023/02/16 08:46:42;;;;;;;6.10;4.00;;;;;;;8.88;100.00;100739.75;4975592;28;20470;-96
2023/02/16 08:49:08;;;;;;;9.52;4.22;;;;;;;8.96;100.00;100753.13;4992925;28;20082;-94
2023/02/16 08:51:39;;;;;;;8.10;3.95;;;;;;;8.94;100.00;100759.22;4976911;28;20113;-96
2023/02/16 08:54:07;;;;;;;4.70;4.18;;;;;;;9.02;100.00;100764.84;4981128;28;20039;-96
2023/02/16 08:56:33;;;;;;;5.13;3.78;;;;;;;9.04;100.00;100754.50;4996286;28;20081;-96
2023/02/16 08:58:59;;;;;;;5.45;4.07;;;;;;;9.01;100.00;100740.03;4995041;28;20416;-95
2023/02/16 09:01:25;;;;;;;8.52;3.65;;;;;;;9.26;100.00;100780.94;4977351;28;20051;-96
2023/02/16 09:03:51;;;;;;;6.80;4.10;;;;;;;9.18;100.00;100757.28;4977643;28;20031;-96
2023/02/16 09:06:21;;;;;;;4.20;3.22;;;;;;;9.46;100.00;100772.28;4976257;28;20027;-96
2023/02/16 09:08:52;;;;;;;3.58;3.00;;;;;;;9.33;100.00;100756.56;4992230;28;20023;-96
2023/02/16 09:11:18;;;;;;;6.10;2.95;;;;;;;9.37;100.00;100755.50;4975858;28;20085;-96
2023/02/16 09:13:43;;;;;;;3.95;3.20;;;;;;;9.49;100.00;100759.25;4995334;28;20026;-96
2023/02/16 09:16:11;;;;;;;5.10;2.85;;;;;;;9.76;100.00;100758.81;4986361;28;20469;-95
2023/02/16 09:18:38;;;;;;;5.97;2.72;;;;;;;9.83;100.00;100750.72;4980503;28;20046;-94
2023/02/16 09:21:10;;;;;;;6.28;2.70;;;;;;;9.97;100.00;100765.50;4990383;28;20128;-95
2023/02/16 09:23:39;;;;;;;5.75;2.72;;;;;;;10.09;100.00;100782.09;4994250;28;20037;-96
2023/02/16 09:26:06;;;;;;;3.25;2.60;;;;;;;10.15;100.00;100786.97;4985304;28;20082;-96
2023/02/16 09:28:37;;;;;;;2.95;2.28;;;;;;;10.20;100.00;100799.63;4990491;28;20045;-95
2023/02/16 09:31:27;;;;;;;3.03;2.20;;;;;;;10.23;100.00;100789.97;4990239;28;20019;-96
2023/02/16 09:33:55;;;;;;;3.33;1.83;;;;;;;10.28;100.00;100777.72;4982598;28;20100;-95
2023/02/16 09:36:22;;;;;;;1.85;1.75;;;;;;;10.26;100.00;100787.22;4993341;28;20037;-96
2023/02/16 09:38:47;;;;;;;3.47;1.65;;;;;;;10.28;100.00;100788.03;4991601;28;20389;-94
2023/02/16 09:41:40;;;;;;;2.28;1.40;;;;;;;10.31;100.00;100802.50;4989913;28;20114;-95
2023/02/16 09:44:30;;;;;;;2.22;1.50;;;;;;;10.41;100.00;100802.88;4996385;28;20125;-96
2023/02/16 09:46:58;;;;;;;5.82;3.05;;;;;;;10.45;100.00;100779.44;4989821;28;20019;-95
2023/02/16 09:49:38;;;;;;;2.60;1.92;;;;;;;10.58;100.00;100799.44;5004168;28;20113;-96
2023/02/16 09:52:07;;;;;;;2.92;2.08;;;;;;;10.84;100.00;100795.50;4997081;28;20167;-95
2023/02/16 09:54:46;;;;;;;4.50;2.65;;;;;;;11.02;100.00;100791.97;5007329;28;20026;-95
2023/02/16 09:57:37;;;;;;;8.15;2.00;;;;;;;11.51;100.00;100804.78;5007113;28;20030;-94
2023/02/16 10:00:15;;;;;;;4.75;2.08;;;;;;;11.29;100.00;100786.19;5010949;28;20022;-94
2023/02/16 10:02:46;;;;;;;5.30;2.13;;;;;;;11.49;100.00;100798.84;5010910;28;20408;-94
2023/02/16 10:05:22;;;;;;;4.45;2.13;;;;;;;11.48;100.00;100792.00;5009708;28;20057;-94
2023/02/16 10:08:30;;;;;;;4.63;1.92;;;;;;;11.64;100.00;100811.84;5002489;28;20026;-94
2023/02/16 10:11:04;;;;;;;3.17;1.63;;;;;;;11.53;100.00;100784.84;4991376;28;20042;-94
2023/02/16 10:13:30;;;;;;;2.60;1.20;;;;;;;11.53;100.00;100810.72;5005117;28;20033;-95
2023/02/16 10:15:58;;;;;;;2.63;1.58;;;;;;;11.51;100.00;100786.69;4996571;28;20027;-95
2023/02/16 10:18:32;;;;;;;1.02;0.60;;;;;;;11.76;100.00;100813.75;4991707;28;20472;-94
2023/02/16 10:21:02;;;;;;;1.25;0.50;;;;;;;11.81;100.00;100831.59;4987191;28;20027;-94
2023/02/16 10:23:55;;;;;;;0.80;0.45;;;;;;;11.63;100.00;100836.03;4986045;28;20033;-94
2023/02/16 10:26:38;;;;;;;0.47;0.40;;;;;;;11.48;100.00;100819.63;4999076;28;20080;-94
2023/02/16 10:29:14;;;;;;;0.93;0.40;;;;;;;11.45;100.00;100833.53;4993401;28;20041;-94
2023/02/16 10:32:03;;;;;;;0.30;0.20;;;;;;;11.41;100.00;100834.66;4992095;28;20085;-94
2023/02/16 10:34:35;;;;;;;0.60;0.30;;;;;;;11.35;100.00;100834.97;4969024;28;20109;-94
2023/02/16 10:37:21;;;;;;;0.40;0.30;;;;;;;11.40;100.00;100830.38;4974265;28;20022;-93
2023/02/16 10:40:11;;;;;;;0.20;0.20;;;;;;;11.43;100.00;100845.72;4979101;28;20043;-94
2023/02/16 10:42:56;;;;;;;3.03;2.45;;;;;;;11.77;100.00;100859.38;4973896;28;20035;-94
2023/02/16 10:45:42;;;;;;;0.75;0.55;;;;;;;11.79;100.00;100852.38;5003521;28;20034;-93
2023/02/16 10:48:09;;;;;;;0.68;0.47;;;;;;;12.45;100.00;100865.91;4992209;28;20062;-93
2023/02/16 10:50:56;;;;;;;0.30;0.30;;;;;;;12.79;100.00;100875.94;4989178;28;20070;-93
2023/02/16 10:53:30;;;;;;;1.02;0.63;;;;;;;12.61;100.00;100879.63;4974042;28;20492;-94
2023/02/16 10:55:56;;;;;;;1.88;0.75;;;;;;;12.40;100.00;100864.41;4972907;28;20031;-94
2023/02/16 10:58:26;;;;;;;0.88;0.30;;;;;;;12.38;100.00;100866.25;4973518;28;20027;-95
2023/02/16 11:01:23;;;;;;;3.35;0.40;;;;;;;12.97;100.00;100870.56;4988202;28;20019;-94
2023/02/16 11:03:50;;;;;;;0.20;0.20;;;;;;;13.28;98.66;100874.75;4976704;28;20053;-94
2023/02/16 11:06:23;;;;;;;0.60;0.50;;;;;;;13.35;96.89;100857.06;4975089;28;20027;-94
2023/02/16 11:08:58;;;;;;;0.73;0.10;;;;;;;13.37;93.31;100860.41;4979031;28;20030;-94
2023/02/16 11:11:28;;;;;;;0.20;0.20;;;;;;;13.01;96.82;100879.84;4977087;28;20038;-94
2023/02/16 11:14:03;;;;;;;1.45;0.10;;;;;;;12.95;96.52;100855.13;4985927;28;20484;-93
2023/02/16 11:16:29;;;;;;;0.10;0.10;;;;;;;13.23;94.28;100872.41;4993567;28;20530;-94
2023/02/16 11:19:06;;;;;;;0.08;0.08;;;;;;;14.09;92.07;100848.84;4992137;28;20121;-94
2023/02/16 11:21:46;;;;;;;0.08;0.08;;;;;;;14.49;85.08;100859.16;4991682;28;20030;-94
2023/02/16 11:24:23;;;;;;;0.10;0.10;;;;;;;15.09;80.00;100859.47;4988038;28;20478;-94
2023/02/16 11:27:18;;;;;;;0.10;0.10;;;;;;;15.50;78.02;100871.34;4974197;28;20092;-94
2023/02/16 11:29:44;;;;;;;0.20;0.10;;;;;;;17.66;69.12;100860.22;4985312;28;20126;-94
2023/02/16 11:32:11;;;;;;;0.82;0.30;;;;;;;20.12;59.62;100848.84;4975967;28;20165;-94
2023/02/16 11:34:50;;;;;;;0.20;0.00;;;;;;;20.84;55.81;100871.88;4974316;28;20604;-95
2023/02/16 11:37:42;;;;;;;0.60;0.45;;;;;;;22.30;51.10;100864.84;4972651;28;20033;-94
2023/02/16 11:40:18;;;;;;;;;;;;;;;20.69;53.86;100862.81;4969853;28;20042;-95
2023/02/16 11:42:50;;;;;;;0.30;0.10;;;;;;;19.23;59.33;100842.72;4972874;28;19949;-95
2023/02/16 11:45:24;;;;;;;0.32;0.20;;;;;;;19.21;59.00;100849.88;4988606;28;20127;-95
2023/02/16 11:48:03;;;;;;;0.17;0.10;;;;;;;17.05;66.18;100832.00;4982986;28;20046;-94
2023/02/16 11:50:32;;;;;;;0.28;0.20;;;;;;;17.06;65.50;100828.44;4990749;28;20073;-95
2023/02/16 11:53:13;;;;;;;1.17;0.22;;;;;;;15.53;72.29;100853.75;4991433;28;20037;-94
2023/02/16 11:55:47;;;;;;;0.55;0.30;;;;;;;14.62;77.09;100845.38;4992667;28;20026;-95
2023/02/16 11:58:26;;;;;;;1.20;0.70;;;;;;;14.29;79.24;100844.09;4990751;28;20477;-95
2023/02/16 12:01:18;;;;;;;3.35;1.52;;;;;;;14.15;79.84;100821.63;4993333;28;20035;-96
2023/02/16 12:04:12;;;;;;;0.70;0.50;;;;;;;13.42;86.12;100817.69;4993202;28;20369;-96
2023/02/16 12:06:47;;;;;;;1.95;0.30;;;;;;;13.61;86.46;100855.44;4994876;28;20046;-96
2023/02/16 12:09:29;;;;;;;0.20;0.10;;;;;;;13.31;89.98;100847.81;4990705;28;20050;-95
2023/02/16 12:12:16;;;;;;;0.75;0.20;;;;;;;13.59;87.14;100854.69;4992719;28;20026;-95
2023/02/16 12:14:53;;;;;;;3.60;1.00;;;;;;;13.17;88.20;100833.91;4991395;28;20027;-94
2023/02/16 12:17:40;;;;;;;1.08;0.70;;;;;;;13.01;90.53;100857.34;4994739;28;20483;-95
2023/02/16 12:20:32;;;;;;;2.40;0.35;;;;;;;12.52;95.46;100860.28;5012616;28;20085;-96
2023/02/16 12:23:14;;;;;;;6.65;0.60;;;;;;;11.95;99.85;100840.28;5004766;28;20122;-95